GSE Systems Debt to Equity Ratio 2010-2024 | GVP

Current and historical debt to equity ratio values for GSE Systems (GVP) over the last 10 years. The debt/equity ratio can be defined as a measure of a company's financial leverage calculated by dividing its long-term debt by stockholders' equity. GSE Systems debt/equity for the three months ending March 31, 2024 was 0.07.
GSE Systems Debt/Equity Ratio Historical Data
Date Long Term Debt Shareholder's Equity Debt to Equity Ratio
2024-03-31 $0.02B $0.00B 4.37
2023-12-31 $0.02B $0.01B 3.27
2023-09-30 $0.02B $0.01B 2.99
2023-06-30 $0.02B $0.01B 2.19
2023-03-31 $0.02B $0.01B 1.95
2022-12-31 $0.02B $0.01B 1.59
2022-09-30 $0.02B $0.01B 1.52
2022-06-30 $0.02B $0.02B 0.95
2022-03-31 $0.02B $0.02B 1.01
2021-12-31 $0.02B $0.02B 0.70
2021-09-30 $0.02B $0.03B 0.65
2021-06-30 $0.03B $0.01B 2.09
2021-03-31 $0.03B $0.01B 2.93
2020-12-31 $0.03B $0.01B 2.73
2020-09-30 $0.03B $0.01B 2.64
2020-06-30 $0.04B $0.01B 3.52
2020-03-31 $0.04B $0.01B 2.58
2019-12-31 $0.04B $0.02B 1.91
2019-09-30 $0.04B $0.03B 1.41
2019-06-30 $0.04B $0.03B 1.50
2019-03-31 $0.04B $0.03B 1.62
2018-12-31 $0.03B $0.03B 0.97
2018-09-30 $0.03B $0.03B 0.91
2018-06-30 $0.03B $0.03B 0.97
2018-03-31 $0.02B $0.03B 0.81
2017-12-31 $0.03B $0.03B 0.89
2017-09-30 $0.03B $0.02B 1.27
2017-06-30 $0.03B $0.02B 1.24
2017-03-31 $0.03B $0.02B 1.33
2016-12-31 $0.03B $0.02B 1.54
2016-09-30 $0.03B $0.02B 1.24
2016-06-30 $0.02B $0.02B 1.11
2016-03-31 $0.02B $0.02B 1.11
2015-12-31 $0.02B $0.02B 1.14
2015-09-30 $0.02B $0.02B 1.19
2015-06-30 $0.02B $0.02B 0.99
2015-03-31 $0.02B $0.02B 0.89
2014-12-31 $0.02B $0.02B 1.03
2014-09-30 $0.02B $0.03B 0.63
2014-06-30 $0.01B $0.03B 0.54
2014-03-31 $0.02B $0.03B 0.54
2013-12-31 $0.02B $0.03B 0.61
2013-09-30 $0.02B $0.03B 0.60
2013-06-30 $0.02B $0.03B 0.64
2013-03-31 $0.02B $0.04B 0.47
2012-12-31 $0.02B $0.04B 0.53
2012-09-30 $0.02B $0.04B 0.48
2012-06-30 $0.02B $0.04B 0.46
2012-03-31 $0.02B $0.04B 0.48
2011-12-31 $0.02B $0.04B 0.52
2011-09-30 $0.02B $0.04B 0.53
2011-06-30 $0.02B $0.04B 0.50
2011-03-31 $0.02B $0.04B 0.53
2010-12-31 $0.02B $0.04B 0.45
2010-09-30 $0.02B $0.04B 0.52
2010-06-30 $0.02B $0.04B 0.49
2010-03-31 $0.01B $0.04B 0.33
2009-12-31 $0.01B $0.04B 0.33
2009-09-30 $0.01B $0.04B 0.28
2009-06-30 $0.01B $0.02B 0.59
2009-03-31 $0.01B $0.02B 0.50
Sector Industry Market Cap Revenue
Computer and Technology Computer Software $0.010B $0.045B
GSE Systems, Inc. develops and delivers business and technology solutions by applying process control and simulation software, systems and services to the pharmaceutical and chemical research & development, energy, process and manufacturing industries worldwide. The company's products are used in the following industries: specialty chemical, food and beverage, petroleum refining, pharmaceutical, fossil and nuclear power generation, metals and water treatment. (PRESS RELEASE)
Stock Name Country Market Cap PE Ratio
Microsoft (MSFT) United States $3123.129B 36.38
Oracle (ORCL) United States $339.440B 27.63
Salesforce (CRM) United States $276.470B 46.22
Adobe (ADBE) United States $216.577B 36.21
Intuit (INTU) United States $185.130B 62.08
Synopsys (SNPS) United States $86.426B 62.35
Cadence Design Systems (CDNS) United States $78.595B 74.82
Dassault Systemes SA (DASTY) France $54.943B 35.70
Autodesk (ADSK) United States $47.666B 46.57
ANSYS (ANSS) United States $28.609B 52.94
MicroStrategy (MSTR) United States $28.105B 0.00
PTC (PTC) United States $22.051B 58.48
SS&C Technologies Holdings (SSNC) United States $15.759B 14.92
Manhattan Associates (MANH) United States $14.086B 74.76
Descartes Systems Group (DSGX) Canada $8.355B 73.13
Open Text (OTEX) Canada $8.317B 8.37
Trend Micro (TMICY) Japan $6.733B 48.76
Pegasystems (PEGA) United States $5.347B 47.28
CommVault Systems (CVLT) United States $4.828B 78.89
Blackbaud (BLKB) United States $4.094B 35.24
ACI Worldwide (ACIW) United States $3.985B 18.94
Progress Software (PRGS) United States $2.222B 14.13
Verint Systems (VRNT) United States $2.002B 18.66
Sapiens (SPNS) Israel $1.922B 26.20
BlackBerry (BB) Canada $1.735B 0.00
PROS Holdings (PRO) United States $1.479B 0.00
Simulations Plus (SLP) United States $1.018B 74.93
Rand Worldwide (RWWI) United States $0.647B 0.00
Magic Software Enterprises (MGIC) Israel $0.583B 12.38
American Software (AMSWA) United States $0.347B 29.03
Canaan (CAN) China $0.245B 0.00
OptimizeRx (OPRX) United States $0.232B 0.00
Rigetti Computing (RGTI) United States $0.183B 0.00
Icad Inc (ICAD) United States $0.046B 0.00
Neonode (NEON) Sweden $0.034B 0.00
NetSol Technologies (NTWK) United States $0.030B 0.00
Wetouch Technology (WETH) $0.027B 0.00
Smith Micro Software (SMSI) United States $0.026B 0.00
Hanryu Holdings (HRYU) South Korea $0.022B 0.00
SAP SE (SAP) Germany $0.000B 49.31